Aeroporto :
LOGIN :

Iscrizione | Disclaimer

   EN    FR    IT 

 










Sommario :    VFR   VFR Marginale   IFR   IFR Intensivo   IFR Molto Intensivo
Visibilità : 
Base nubi : 
>= 8 km
>= 3000ft
5 / 8 km
1000 / 3000 ft
1500m / 5 km
500 / 1000 ft
800 / 1500m
200 / 500 ft
< 800m
< 200 ft
Simboli :   Temporali  Nebbia  Neve Forte  Precipitazioni Forti  Vento > 20 kt
SIGMETs :   Varie  Temporali  Ghiacco  Turbolenza  Onda orograficha  Ceneri Vulcaniche






- Altitudine del aeroporto : 184 ft
- Codice IATA : BRU


EBBR - Bruxelles

ULTIMO METAR :
  • 181920Z 29004KT CAVOK 03/00 Q1030 NOSIG

METARs OBSOLETI :
  • 181850Z 30005KT 9999 FEW022 03/00 Q1029 NOSIG
  • 181820Z 29004KT 9999 SCT022 03/01 Q1029 NOSIG
  • 181750Z 28006KT 9999 FEW029 03/00 Q1029 NOSIG
  • 181720Z 29006KT 9999 FEW029 04/01 Q1028 NOSIG
  • 181650Z 29007KT 9999 FEW029 05/01 Q1028 NOSIG

TAF TAF EBBR
Valido dal 18 a 18 ore il 20 a 00 ore UTC


181710Z 1818/1924 28006KT 9999 FEW025
PROB40
TEMPO 1900/1909 3500 SHRAGS SCT008 BKN014CB
TEMPO 1909/1914 36010KT
PROB40 1923/1924 3500 BR



MetMap, La meteo Aeronautica in un colpo d'occhio ! - Copyright ORBIFLY Dicembre 2007 - Disclaimer

ORBIFLY MET'MAP TEAM :

Programmazione e sviluppo : Alexandra Zaïnal
Concezione : Baudouin d'Aumeries
Aiuto per la programmazione : Marc-Olivier Méhu
Supporto tecnico e logistico : Manuel Goepfert
Aiuto per la traduzione : Arnaldo La Scala

Contatto : metmap@orbifly.com




FONTI E CREDITI :

   NOAA